Pagina principale
METAR-TAF:

METAR-TAF

Aeroporti :

Aeroporto di Palermo-Punta Raisi

Palermo, Italia

latitudine: 38-11N, longitudine: 013-06E, altezza: 21 m

Osservazione

Il bollettino è stato emesso 28 minuti fa, alle 17:20 UTC
Vento 10 kt da nord/nord-est
Temperature 20°C
Umidità 68%
Pressione 1014 hPa
Visibilità 10 km o più
Poco nuvoloso ad un'altezza di 3200 ft

METAR: LICJ 311720Z 02010KT 9999 FEW032 20/14 Q1014

Ora: 19:48 (17:48 UTC)

Previsione

Il bollettino è stato emesso 48 minuti fa, alle 17:00 UTC
Previsione valida dal 31 alle 18 UTC al 01 alle 18 UTC
Vento 12 kt da nord
Visibilità 10 km o più
Poco nuvoloso ad un'altezza di 3000 ft
Evoluzione graduale
dal 31 alle 20 UTC al 31 alle 22 UTC
Vento 5 kt da direzioni variabili
Evoluzione graduale
dal 01 alle 07 UTC al 01 alle 09 UTC
Vento 12 kt da nord

TAF: LICJ 311700Z 3118/0118 01012KT 9999 FEW030 BECMG 3120/3122 VRB05KT BECMG 0107/0109 01012KT

Osservazioni e previsioni meteorologiche di più di 4000 aeroporti (messaggi METAR e TAF).

Le stazioni disponibili sono rappresentate dai dischi gialli e rossi sulla carta.

Puntare il mouse per vedere il nome della stazione.

Clicca sopra per visualizzare le osservazioni e previsioni meteorologiche.

Per cambiare la mappa : fare clic sui pulsanti verdi con una croce nera per ingrandire, il pulsante verde con un trattino per diminuire, o sulla freccia verde per le mappe adiacenti.


METAR-TAF: